sensor_id;sensor_type;location;lat;lon;timestamp;temperature;humidity
11091;DHT22;5599;52.210;21.046;2023-08-06T00:01:01;19.70;99.90
11091;DHT22;5599;52.210;21.046;2023-08-06T00:03:32;19.80;99.90
11091;DHT22;5599;52.210;21.046;2023-08-06T00:06:01;19.80;99.90
11091;DHT22;5599;52.210;21.046;2023-08-06T00:08:30;19.70;99.90
11091;DHT22;5599;52.210;21.046;2023-08-06T00:10:59;19.80;99.90
11091;DHT22;5599;52.210;21.046;2023-08-06T00:13:28;19.80;99.90
11091;DHT22;5599;52.210;21.046;2023-08-06T00:16:08;19.80;99.90
11091;DHT22;5599;52.210;21.046;2023-08-06T00:18:40;19.70;99.90
11091;DHT22;5599;52.210;21.046;2023-08-06T00:21:09;19.80;99.90
11091;DHT22;5599;52.210;21.046;2023-08-06T00:23:40;19.80;99.90
11091;DHT22;5599;52.210;21.046;2023-08-06T00:26:09;19.90;99.90
11091;DHT22;5599;52.210;21.046;2023-08-06T00:28:38;19.90;99.90
11091;DHT22;5599;52.210;21.046;2023-08-06T00:31:07;19.90;99.90
11091;DHT22;5599;52.210;21.046;2023-08-06T00:33:36;19.90;99.90
11091;DHT22;5599;52.210;21.046;2023-08-06T00:36:07;19.90;99.90
11091;DHT22;5599;52.210;21.046;2023-08-06T00:38:36;19.90;99.90
11091;DHT22;5599;52.210;21.046;2023-08-06T00:41:05;20.00;99.90
11091;DHT22;5599;52.210;21.046;2023-08-06T00:43:34;20.00;99.90
11091;DHT22;5599;52.210;21.046;2023-08-06T00:46:03;20.00;99.90
11091;DHT22;5599;52.210;21.046;2023-08-06T00:48:34;20.00;99.90
11091;DHT22;5599;52.210;21.046;2023-08-06T00:51:04;20.00;99.90
11091;DHT22;5599;52.210;21.046;2023-08-06T00:53:34;20.10;99.90
11091;DHT22;5599;52.210;21.046;2023-08-06T00:56:03;20.10;99.90
11091;DHT22;5599;52.210;21.046;2023-08-06T00:58:34;20.00;99.90
11091;DHT22;5599;52.210;21.046;2023-08-06T01:01:03;19.90;99.90
11091;DHT22;5599;52.210;21.046;2023-08-06T01:03:34;20.00;99.90
11091;DHT22;5599;52.210;21.046;2023-08-06T01:06:03;19.90;99.90
11091;DHT22;5599;52.210;21.046;2023-08-06T01:08:43;19.90;99.90
11091;DHT22;5599;52.210;21.046;2023-08-06T01:11:21;19.80;99.90
11091;DHT22;5599;52.210;21.046;2023-08-06T01:13:59;19.70;99.90
11091;DHT22;5599;52.210;21.046;2023-08-06T01:16:31;19.70;99.90
11091;DHT22;5599;52.210;21.046;2023-08-06T01:19:01;19.70;99.90
11091;DHT22;5599;52.210;21.046;2023-08-06T01:21:32;19.70;99.90
11091;DHT22;5599;52.210;21.046;2023-08-06T01:24:01;19.60;99.90
11091;DHT22;5599;52.210;21.046;2023-08-06T01:26:34;19.50;99.90
11091;DHT22;5599;52.210;21.046;2023-08-06T01:29:17;19.50;99.90
11091;DHT22;5599;52.210;21.046;2023-08-06T01:31:50;19.50;99.90
11091;DHT22;5599;52.210;21.046;2023-08-06T01:34:22;19.40;99.90
11091;DHT22;5599;52.210;21.046;2023-08-06T01:36:53;19.30;99.90
11091;DHT22;5599;52.210;21.046;2023-08-06T01:39:22;19.30;99.90
11091;DHT22;5599;52.210;21.046;2023-08-06T01:41:51;19.20;99.90
11091;DHT22;5599;52.210;21.046;2023-08-06T01:44:21;19.20;99.90
11091;DHT22;5599;52.210;21.046;2023-08-06T01:46:50;19.10;99.90
11091;DHT22;5599;52.210;21.046;2023-08-06T01:49:19;19.20;99.90
11091;DHT22;5599;52.210;21.046;2023-08-06T01:51:48;19.10;99.90
11091;DHT22;5599;52.210;21.046;2023-08-06T01:54:19;19.10;99.90
11091;DHT22;5599;52.210;21.046;2023-08-06T01:56:48;19.10;99.90
11091;DHT22;5599;52.210;21.046;2023-08-06T01:59:17;19.10;99.90
11091;DHT22;5599;52.210;21.046;2023-08-06T02:01:46;19.00;99.90
11091;DHT22;5599;52.210;21.046;2023-08-06T02:04:15;19.00;99.90
11091;DHT22;5599;52.210;21.046;2023-08-06T02:06:44;19.00;99.90
11091;DHT22;5599;52.210;21.046;2023-08-06T02:09:13;19.10;99.90
11091;DHT22;5599;52.210;21.046;2023-08-06T02:11:44;19.10;99.90
11091;DHT22;5599;52.210;21.046;2023-08-06T02:14:13;19.10;99.90
11091;DHT22;5599;52.210;21.046;2023-08-06T02:16:42;19.10;99.90
11091;DHT22;5599;52.210;21.046;2023-08-06T02:19:11;19.10;99.90
11091;DHT22;5599;52.210;21.046;2023-08-06T02:21:40;19.10;99.90
11091;DHT22;5599;52.210;21.046;2023-08-06T02:24:10;19.10;99.90
11091;DHT22;5599;52.210;21.046;2023-08-06T02:26:39;19.10;99.90
11091;DHT22;5599;52.210;21.046;2023-08-06T02:29:09;19.10;99.90
11091;DHT22;5599;52.210;21.046;2023-08-06T02:31:38;19.10;99.90
11091;DHT22;5599;52.210;21.046;2023-08-06T02:34:08;19.10;99.90
11091;DHT22;5599;52.210;21.046;2023-08-06T02:36:38;19.10;99.90
11091;DHT22;5599;52.210;21.046;2023-08-06T02:39:07;19.20;99.90
11091;DHT22;5599;52.210;21.046;2023-08-06T02:41:36;19.20;99.90
11091;DHT22;5599;52.210;21.046;2023-08-06T02:44:05;19.20;99.90
11091;DHT22;5599;52.210;21.046;2023-08-06T02:46:36;19.20;99.90
11091;DHT22;5599;52.210;21.046;2023-08-06T02:49:05;19.30;99.90
11091;DHT22;5599;52.210;21.046;2023-08-06T02:51:34;19.30;99.90
11091;DHT22;5599;52.210;21.046;2023-08-06T02:54:04;19.30;99.90
11091;DHT22;5599;52.210;21.046;2023-08-06T02:56:35;19.30;99.90
11091;DHT22;5599;52.210;21.046;2023-08-06T02:59:12;19.30;99.90
11091;DHT22;5599;52.210;21.046;2023-08-06T03:01:56;19.30;99.90
11091;DHT22;5599;52.210;21.046;2023-08-06T03:04:34;19.30;99.90
11091;DHT22;5599;52.210;21.046;2023-08-06T03:07:04;19.30;99.90
11091;DHT22;5599;52.210;21.046;2023-08-06T03:09:41;19.30;99.90
11091;DHT22;5599;52.210;21.046;2023-08-06T03:12:10;19.40;99.90
11091;DHT22;5599;52.210;21.046;2023-08-06T03:14:39;19.30;99.90
11091;DHT22;5599;52.210;21.046;2023-08-06T03:17:11;19.30;99.90
11091;DHT22;5599;52.210;21.046;2023-08-06T03:19:40;19.40;99.90
11091;DHT22;5599;52.210;21.046;2023-08-06T03:22:10;19.40;99.90
11091;DHT22;5599;52.210;21.046;2023-08-06T03:24:40;19.40;99.90
11091;DHT22;5599;52.210;21.046;2023-08-06T03:27:09;19.40;99.90
11091;DHT22;5599;52.210;21.046;2023-08-06T03:29:40;19.40;99.90
11091;DHT22;5599;52.210;21.046;2023-08-06T03:32:11;19.40;99.90
11091;DHT22;5599;52.210;21.046;2023-08-06T03:34:41;19.50;99.90
11091;DHT22;5599;52.210;21.046;2023-08-06T03:37:11;19.50;99.90
11091;DHT22;5599;52.210;21.046;2023-08-06T03:39:40;19.50;99.90
11091;DHT22;5599;52.210;21.046;2023-08-06T03:42:09;19.60;99.90
11091;DHT22;5599;52.210;21.046;2023-08-06T03:44:38;19.50;99.90
11091;DHT22;5599;52.210;21.046;2023-08-06T03:47:10;19.50;99.90
11091;DHT22;5599;52.210;21.046;2023-08-06T03:49:40;19.60;99.90
11091;DHT22;5599;52.210;21.046;2023-08-06T03:52:09;19.60;99.90
11091;DHT22;5599;52.210;21.046;2023-08-06T03:54:38;19.60;99.90
11091;DHT22;5599;52.210;21.046;2023-08-06T03:57:07;19.70;99.90
11091;DHT22;5599;52.210;21.046;2023-08-06T03:59:36;19.70;99.90
11091;DHT22;5599;52.210;21.046;2023-08-06T04:02:06;19.70;99.90
11091;DHT22;5599;52.210;21.046;2023-08-06T04:04:37;19.70;99.90
11091;DHT22;5599;52.210;21.046;2023-08-06T04:07:06;19.70;99.90
11091;DHT22;5599;52.210;21.046;2023-08-06T04:09:52;19.70;99.90
11091;DHT22;5599;52.210;21.046;2023-08-06T04:12:21;19.70;99.90
11091;DHT22;5599;52.210;21.046;2023-08-06T04:14:51;19.80;99.90
11091;DHT22;5599;52.210;21.046;2023-08-06T04:17:21;19.80;99.90
11091;DHT22;5599;52.210;21.046;2023-08-06T04:19:52;19.80;99.90
11091;DHT22;5599;52.210;21.046;2023-08-06T04:22:22;19.80;99.90
11091;DHT22;5599;52.210;21.046;2023-08-06T04:24:51;19.90;99.90
11091;DHT22;5599;52.210;21.046;2023-08-06T04:27:20;19.90;99.90
11091;DHT22;5599;52.210;21.046;2023-08-06T04:29:49;19.90;99.90
11091;DHT22;5599;52.210;21.046;2023-08-06T04:32:19;20.00;99.90
11091;DHT22;5599;52.210;21.046;2023-08-06T04:34:56;20.00;99.90
11091;DHT22;5599;52.210;21.046;2023-08-06T04:37:25;20.10;99.90
11091;DHT22;5599;52.210;21.046;2023-08-06T04:39:54;20.10;99.90
11091;DHT22;5599;52.210;21.046;2023-08-06T04:42:23;20.20;99.90
11091;DHT22;5599;52.210;21.046;2023-08-06T04:44:52;20.30;99.90
11091;DHT22;5599;52.210;21.046;2023-08-06T04:47:22;20.30;99.90
11091;DHT22;5599;52.210;21.046;2023-08-06T04:49:51;20.40;99.90
11091;DHT22;5599;52.210;21.046;2023-08-06T04:52:21;20.50;99.90
11091;DHT22;5599;52.210;21.046;2023-08-06T04:54:50;20.70;99.90
11091;DHT22;5599;52.210;21.046;2023-08-06T04:57:19;20.90;99.90
11091;DHT22;5599;52.210;21.046;2023-08-06T04:59:48;21.20;99.90
11091;DHT22;5599;52.210;21.046;2023-08-06T05:02:17;21.70;99.90
11091;DHT22;5599;52.210;21.046;2023-08-06T05:04:47;22.20;99.90
11091;DHT22;5599;52.210;21.046;2023-08-06T05:07:16;22.50;99.90
11091;DHT22;5599;52.210;21.046;2023-08-06T05:09:46;23.30;94.60
11091;DHT22;5599;52.210;21.046;2023-08-06T05:12:15;24.00;99.90
11091;DHT22;5599;52.210;21.046;2023-08-06T05:14:44;25.00;1.00
11091;DHT22;5599;52.210;21.046;2023-08-06T05:17:13;25.40;1.00
11091;DHT22;5599;52.210;21.046;2023-08-06T05:19:43;25.90;99.90
11091;DHT22;5599;52.210;21.046;2023-08-06T05:22:12;25.70;99.90
11091;DHT22;5599;52.210;21.046;2023-08-06T05:24:41;25.80;1.00
11091;DHT22;5599;52.210;21.046;2023-08-06T05:27:11;26.30;99.90
11091;DHT22;5599;52.210;21.046;2023-08-06T05:29:40;26.90;1.00
11091;DHT22;5599;52.210;21.046;2023-08-06T05:32:09;27.40;99.90
11091;DHT22;5599;52.210;21.046;2023-08-06T05:34:38;28.10;1.00
11091;DHT22;5599;52.210;21.046;2023-08-06T05:37:09;28.60;1.00
11091;DHT22;5599;52.210;21.046;2023-08-06T05:39:38;28.90;99.90
11091;DHT22;5599;52.210;21.046;2023-08-06T05:42:07;29.00;1.00
11091;DHT22;5599;52.210;21.046;2023-08-06T05:44:37;29.40;1.00
11091;DHT22;5599;52.210;21.046;2023-08-06T05:47:06;29.40;1.00
11091;DHT22;5599;52.210;21.046;2023-08-06T05:49:36;29.60;99.90
11091;DHT22;5599;52.210;21.046;2023-08-06T05:52:06;29.90;1.00
11091;DHT22;5599;52.210;21.046;2023-08-06T05:54:36;30.10;1.00
11091;DHT22;5599;52.210;21.046;2023-08-06T05:57:06;30.30;1.00
11091;DHT22;5599;52.210;21.046;2023-08-06T05:59:36;30.80;1.00
11091;DHT22;5599;52.210;21.046;2023-08-06T06:02:06;31.70;1.00
11091;DHT22;5599;52.210;21.046;2023-08-06T06:04:35;32.40;99.90
11091;DHT22;5599;52.210;21.046;2023-08-06T06:07:04;32.70;99.90
11091;DHT22;5599;52.210;21.046;2023-08-06T06:09:33;32.60;1.00
11091;DHT22;5599;52.210;21.046;2023-08-06T06:12:03;31.80;1.00
11091;DHT22;5599;52.210;21.046;2023-08-06T06:14:32;31.30;39.10
11091;DHT22;5599;52.210;21.046;2023-08-06T06:17:03;30.30;1.00
11091;DHT22;5599;52.210;21.046;2023-08-06T06:19:32;29.60;1.00
11091;DHT22;5599;52.210;21.046;2023-08-06T06:22:01;29.50;1.00
11091;DHT22;5599;52.210;21.046;2023-08-06T06:24:30;29.60;1.00
11091;DHT22;5599;52.210;21.046;2023-08-06T06:26:59;29.60;1.00
11091;DHT22;5599;52.210;21.046;2023-08-06T06:29:28;29.30;1.00
11091;DHT22;5599;52.210;21.046;2023-08-06T06:31:57;29.30;1.00
11091;DHT22;5599;52.210;21.046;2023-08-06T06:34:28;29.30;1.00
11091;DHT22;5599;52.210;21.046;2023-08-06T06:36:57;28.80;1.00
11091;DHT22;5599;52.210;21.046;2023-08-06T06:39:26;28.40;1.00
11091;DHT22;5599;52.210;21.046;2023-08-06T06:41:55;28.10;1.00
11091;DHT22;5599;52.210;21.046;2023-08-06T06:44:31;28.20;99.90
11091;DHT22;5599;52.210;21.046;2023-08-06T06:47:00;29.00;1.00
11091;DHT22;5599;52.210;21.046;2023-08-06T06:49:31;29.90;99.90
11091;DHT22;5599;52.210;21.046;2023-08-06T06:52:00;29.80;1.00
11091;DHT22;5599;52.210;21.046;2023-08-06T06:54:29;30.10;99.90
11091;DHT22;5599;52.210;21.046;2023-08-06T06:56:59;30.60;99.90
11091;DHT22;5599;52.210;21.046;2023-08-06T06:59:28;31.10;99.90
11091;DHT22;5599;52.210;21.046;2023-08-06T07:01:57;30.90;99.90
11091;DHT22;5599;52.210;21.046;2023-08-06T07:04:26;31.30;99.90
11091;DHT22;5599;52.210;21.046;2023-08-06T07:06:57;31.80;99.90
11091;DHT22;5599;52.210;21.046;2023-08-06T07:09:26;32.10;99.90
11091;DHT22;5599;52.210;21.046;2023-08-06T07:11:55;31.30;99.90
11091;DHT22;5599;52.210;21.046;2023-08-06T07:14:25;31.10;1.00
11091;DHT22;5599;52.210;21.046;2023-08-06T07:16:55;31.60;99.90
11091;DHT22;5599;52.210;21.046;2023-08-06T07:19:24;32.10;99.90
11091;DHT22;5599;52.210;21.046;2023-08-06T07:21:53;32.30;99.90
11091;DHT22;5599;52.210;21.046;2023-08-06T07:24:25;32.50;1.00
11091;DHT22;5599;52.210;21.046;2023-08-06T07:26:54;32.60;99.90
11091;DHT22;5599;52.210;21.046;2023-08-06T07:29:23;32.40;1.00
11091;DHT22;5599;52.210;21.046;2023-08-06T07:31:52;32.30;99.90
11091;DHT22;5599;52.210;21.046;2023-08-06T07:34:21;31.90;1.00
11091;DHT22;5599;52.210;21.046;2023-08-06T07:36:50;32.10;1.00
11091;DHT22;5599;52.210;21.046;2023-08-06T07:39:19;32.10;1.00
11091;DHT22;5599;52.210;21.046;2023-08-06T07:41:51;32.20;1.00
11091;DHT22;5599;52.210;21.046;2023-08-06T07:44:21;31.70;1.00
11091;DHT22;5599;52.210;21.046;2023-08-06T07:46:51;31.50;1.00
11091;DHT22;5599;52.210;21.046;2023-08-06T07:49:21;31.30;1.00
11091;DHT22;5599;52.210;21.046;2023-08-06T07:51:50;31.70;1.00
11091;DHT22;5599;52.210;21.046;2023-08-06T07:54:21;32.00;1.00
11091;DHT22;5599;52.210;21.046;2023-08-06T07:56:53;31.60;1.00
11091;DHT22;5599;52.210;21.046;2023-08-06T07:59:22;30.90;1.00
11091;DHT22;5599;52.210;21.046;2023-08-06T08:01:51;30.70;1.00
11091;DHT22;5599;52.210;21.046;2023-08-06T08:04:21;30.70;1.00
11091;DHT22;5599;52.210;21.046;2023-08-06T08:06:50;30.80;99.90
11091;DHT22;5599;52.210;21.046;2023-08-06T08:09:19;30.60;1.00
11091;DHT22;5599;52.210;21.046;2023-08-06T08:11:48;30.70;1.00
11091;DHT22;5599;52.210;21.046;2023-08-06T08:14:20;30.70;1.00
11091;DHT22;5599;52.210;21.046;2023-08-06T08:16:49;30.60;1.00
11091;DHT22;5599;52.210;21.046;2023-08-06T08:19:18;30.50;1.00
11091;DHT22;5599;52.210;21.046;2023-08-06T08:21:47;30.90;99.90
11091;DHT22;5599;52.210;21.046;2023-08-06T08:24:16;31.40;99.90
11091;DHT22;5599;52.210;21.046;2023-08-06T08:26:47;30.90;1.00
11091;DHT22;5599;52.210;21.046;2023-08-06T08:29:16;30.80;66.80
11091;DHT22;5599;52.210;21.046;2023-08-06T08:31:47;31.50;1.00
11091;DHT22;5599;52.210;21.046;2023-08-06T08:34:17;32.50;1.00
11091;DHT22;5599;52.210;21.046;2023-08-06T08:36:47;33.00;1.00
11091;DHT22;5599;52.210;21.046;2023-08-06T08:39:17;33.30;1.00
11091;DHT22;5599;52.210;21.046;2023-08-06T08:41:46;32.40;1.00
11091;DHT22;5599;52.210;21.046;2023-08-06T08:44:17;32.30;99.90
11091;DHT22;5599;52.210;21.046;2023-08-06T08:46:48;32.20;1.00
11091;DHT22;5599;52.210;21.046;2023-08-06T08:49:17;32.10;1.00
11091;DHT22;5599;52.210;21.046;2023-08-06T08:51:47;31.60;1.00
11091;DHT22;5599;52.210;21.046;2023-08-06T08:54:18;32.10;1.00
11091;DHT22;5599;52.210;21.046;2023-08-06T08:56:47;31.70;99.90
11091;DHT22;5599;52.210;21.046;2023-08-06T08:59:16;31.70;99.90
11091;DHT22;5599;52.210;21.046;2023-08-06T09:01:48;31.80;14.90
11091;DHT22;5599;52.210;21.046;2023-08-06T09:04:20;32.10;1.00
11091;DHT22;5599;52.210;21.046;2023-08-06T09:06:51;31.40;1.00
11091;DHT22;5599;52.210;21.046;2023-08-06T09:09:24;31.20;1.00
11091;DHT22;5599;52.210;21.046;2023-08-06T09:11:55;31.30;1.00
11091;DHT22;5599;52.210;21.046;2023-08-06T09:14:28;31.50;1.00
11091;DHT22;5599;52.210;21.046;2023-08-06T09:17:00;31.40;1.00
11091;DHT22;5599;52.210;21.046;2023-08-06T09:19:30;31.30;1.00
11091;DHT22;5599;52.210;21.046;2023-08-06T09:21:59;31.80;1.00
11091;DHT22;5599;52.210;21.046;2023-08-06T09:24:28;32.40;1.00
11091;DHT22;5599;52.210;21.046;2023-08-06T09:27:02;32.40;99.90
11091;DHT22;5599;52.210;21.046;2023-08-06T09:29:32;32.60;1.00
11091;DHT22;5599;52.210;21.046;2023-08-06T09:32:03;32.30;1.00
11091;DHT22;5599;52.210;21.046;2023-08-06T09:34:32;32.50;1.00
11091;DHT22;5599;52.210;21.046;2023-08-06T09:37:03;32.50;99.90
11091;DHT22;5599;52.210;21.046;2023-08-06T09:39:33;32.00;1.00
11091;DHT22;5599;52.210;21.046;2023-08-06T09:42:02;31.40;1.00
11091;DHT22;5599;52.210;21.046;2023-08-06T09:44:33;31.30;1.00
11091;DHT22;5599;52.210;21.046;2023-08-06T09:47:04;31.60;99.90
11091;DHT22;5599;52.210;21.046;2023-08-06T09:49:42;31.90;99.90
11091;DHT22;5599;52.210;21.046;2023-08-06T09:52:13;32.10;1.00
11091;DHT22;5599;52.210;21.046;2023-08-06T09:54:44;31.60;99.90
11091;DHT22;5599;52.210;21.046;2023-08-06T09:57:14;31.50;99.90
11091;DHT22;5599;52.210;21.046;2023-08-06T09:59:43;31.20;1.00
11091;DHT22;5599;52.210;21.046;2023-08-06T10:02:17;30.60;99.90
11091;DHT22;5599;52.210;21.046;2023-08-06T10:04:48;30.70;99.90
11091;DHT22;5599;52.210;21.046;2023-08-06T10:07:22;30.90;99.90
11091;DHT22;5599;52.210;21.046;2023-08-06T10:09:52;31.40;1.00
11091;DHT22;5599;52.210;21.046;2023-08-06T10:12:21;31.50;99.90
11091;DHT22;5599;52.210;21.046;2023-08-06T10:14:54;31.70;99.90
11091;DHT22;5599;52.210;21.046;2023-08-06T10:17:26;31.80;99.90
11091;DHT22;5599;52.210;21.046;2023-08-06T10:20:11;32.00;99.90
11091;DHT22;5599;52.210;21.046;2023-08-06T10:22:43;32.10;99.90
11091;DHT22;5599;52.210;21.046;2023-08-06T10:25:16;32.30;1.00
11091;DHT22;5599;52.210;21.046;2023-08-06T10:27:54;32.40;1.00
11091;DHT22;5599;52.210;21.046;2023-08-06T10:30:25;32.40;99.90
11091;DHT22;5599;52.210;21.046;2023-08-06T10:32:57;32.40;99.90
11091;DHT22;5599;52.210;21.046;2023-08-06T10:35:34;32.60;99.90
11091;DHT22;5599;52.210;21.046;2023-08-06T10:38:05;32.60;1.00
11091;DHT22;5599;52.210;21.046;2023-08-06T10:40:36;32.20;1.00
11091;DHT22;5599;52.210;21.046;2023-08-06T10:43:06;31.70;99.90
11091;DHT22;5599;52.210;21.046;2023-08-06T10:45:38;31.30;1.00
11091;DHT22;5599;52.210;21.046;2023-08-06T10:48:28;31.50;1.00
11091;DHT22;5599;52.210;21.046;2023-08-06T10:50:59;32.00;1.00
11091;DHT22;5599;52.210;21.046;2023-08-06T10:53:29;32.00;99.90
11091;DHT22;5599;52.210;21.046;2023-08-06T10:56:01;32.20;1.00
11091;DHT22;5599;52.210;21.046;2023-08-06T10:58:33;32.30;1.00
11091;DHT22;5599;52.210;21.046;2023-08-06T11:01:02;32.60;1.00
11091;DHT22;5599;52.210;21.046;2023-08-06T11:03:35;32.80;1.00
11091;DHT22;5599;52.210;21.046;2023-08-06T11:06:06;32.80;1.00
11091;DHT22;5599;52.210;21.046;2023-08-06T11:08:36;32.90;99.90
11091;DHT22;5599;52.210;21.046;2023-08-06T11:11:09;33.10;1.00
11091;DHT22;5599;52.210;21.046;2023-08-06T11:13:41;33.10;1.00
11091;DHT22;5599;52.210;21.046;2023-08-06T11:16:11;32.90;1.00
11091;DHT22;5599;52.210;21.046;2023-08-06T11:18:41;32.70;99.90
11091;DHT22;5599;52.210;21.046;2023-08-06T11:21:11;32.50;99.90
11091;DHT22;5599;52.210;21.046;2023-08-06T11:23:41;32.30;1.00
11091;DHT22;5599;52.210;21.046;2023-08-06T11:26:10;32.10;1.00
11091;DHT22;5599;52.210;21.046;2023-08-06T11:28:42;31.60;99.90
11091;DHT22;5599;52.210;21.046;2023-08-06T11:31:19;31.20;99.90
11091;DHT22;5599;52.210;21.046;2023-08-06T11:33:50;31.10;1.00
11091;DHT22;5599;52.210;21.046;2023-08-06T11:36:29;31.10;1.00
11091;DHT22;5599;52.210;21.046;2023-08-06T11:38:59;31.50;1.00
11091;DHT22;5599;52.210;21.046;2023-08-06T11:41:28;31.80;1.00
11091;DHT22;5599;52.210;21.046;2023-08-06T11:43:58;32.00;99.90
11091;DHT22;5599;52.210;21.046;2023-08-06T11:46:27;32.10;1.00
11091;DHT22;5599;52.210;21.046;2023-08-06T11:48:58;32.10;99.90
11091;DHT22;5599;52.210;21.046;2023-08-06T11:51:28;32.10;99.90
11091;DHT22;5599;52.210;21.046;2023-08-06T11:53:58;32.00;1.00
11091;DHT22;5599;52.210;21.046;2023-08-06T11:56:28;32.10;99.90
11091;DHT22;5599;52.210;21.046;2023-08-06T11:58:57;32.20;99.90
11091;DHT22;5599;52.210;21.046;2023-08-06T12:01:26;32.40;99.90
11091;DHT22;5599;52.210;21.046;2023-08-06T12:04:00;32.10;1.00
11091;DHT22;5599;52.210;21.046;2023-08-06T12:06:29;31.80;99.90
11091;DHT22;5599;52.210;21.046;2023-08-06T12:08:58;31.60;99.90
11091;DHT22;5599;52.210;21.046;2023-08-06T12:11:28;31.60;99.90
11091;DHT22;5599;52.210;21.046;2023-08-06T12:13:57;31.80;99.90
11091;DHT22;5599;52.210;21.046;2023-08-06T12:16:28;31.60;99.90
11091;DHT22;5599;52.210;21.046;2023-08-06T12:18:57;31.50;99.90
11091;DHT22;5599;52.210;21.046;2023-08-06T12:21:28;31.40;99.90
11091;DHT22;5599;52.210;21.046;2023-08-06T12:23:57;31.30;99.90
11091;DHT22;5599;52.210;21.046;2023-08-06T12:26:26;31.00;99.90
11091;DHT22;5599;52.210;21.046;2023-08-06T12:28:56;30.80;99.90
11091;DHT22;5599;52.210;21.046;2023-08-06T12:31:25;30.90;99.90
11091;DHT22;5599;52.210;21.046;2023-08-06T12:33:54;30.90;99.90
11091;DHT22;5599;52.210;21.046;2023-08-06T12:36:23;30.70;99.90
11091;DHT22;5599;52.210;21.046;2023-08-06T12:38:54;30.60;99.90
11091;DHT22;5599;52.210;21.046;2023-08-06T12:41:23;30.50;99.90
11091;DHT22;5599;52.210;21.046;2023-08-06T12:43:52;30.30;99.90
11091;DHT22;5599;52.210;21.046;2023-08-06T12:46:21;30.10;99.90
11091;DHT22;5599;52.210;21.046;2023-08-06T12:48:50;30.20;99.90
11091;DHT22;5599;52.210;21.046;2023-08-06T12:51:20;30.10;99.90
11091;DHT22;5599;52.210;21.046;2023-08-06T12:53:49;29.80;99.90
11091;DHT22;5599;52.210;21.046;2023-08-06T12:56:19;29.70;99.90
11091;DHT22;5599;52.210;21.046;2023-08-06T12:58:49;29.70;99.90
11091;DHT22;5599;52.210;21.046;2023-08-06T13:01:18;29.80;99.90
11091;DHT22;5599;52.210;21.046;2023-08-06T13:03:48;29.70;1.00
11091;DHT22;5599;52.210;21.046;2023-08-06T13:06:18;29.60;1.00
11091;DHT22;5599;52.210;21.046;2023-08-06T13:08:48;29.60;1.00
11091;DHT22;5599;52.210;21.046;2023-08-06T13:11:20;29.60;1.00
11091;DHT22;5599;52.210;21.046;2023-08-06T13:13:51;29.60;1.00
11091;DHT22;5599;52.210;21.046;2023-08-06T13:16:21;29.30;1.00
11091;DHT22;5599;52.210;21.046;2023-08-06T13:18:51;29.00;1.00
11091;DHT22;5599;52.210;21.046;2023-08-06T13:21:23;28.80;5.10
11091;DHT22;5599;52.210;21.046;2023-08-06T13:23:54;28.70;99.90
11091;DHT22;5599;52.210;21.046;2023-08-06T13:26:25;28.70;99.90
11091;DHT22;5599;52.210;21.046;2023-08-06T13:28:58;28.60;1.00
11091;DHT22;5599;52.210;21.046;2023-08-06T13:31:29;28.70;1.00
11091;DHT22;5599;52.210;21.046;2023-08-06T13:33:58;28.80;1.00
11091;DHT22;5599;52.210;21.046;2023-08-06T13:36:29;28.80;1.00
11091;DHT22;5599;52.210;21.046;2023-08-06T13:39:00;29.10;1.00
11091;DHT22;5599;52.210;21.046;2023-08-06T13:41:32;29.20;1.00
11091;DHT22;5599;52.210;21.046;2023-08-06T13:44:03;29.30;1.00
11091;DHT22;5599;52.210;21.046;2023-08-06T13:46:33;29.40;1.00
11091;DHT22;5599;52.210;21.046;2023-08-06T13:49:02;29.70;1.00
11091;DHT22;5599;52.210;21.046;2023-08-06T13:51:33;29.60;1.00
11091;DHT22;5599;52.210;21.046;2023-08-06T13:54:04;29.60;1.00
11091;DHT22;5599;52.210;21.046;2023-08-06T13:56:36;29.70;1.00
11091;DHT22;5599;52.210;21.046;2023-08-06T13:59:07;29.70;99.90
11091;DHT22;5599;52.210;21.046;2023-08-06T14:01:37;29.70;99.90
11091;DHT22;5599;52.210;21.046;2023-08-06T14:04:19;29.60;99.90
11091;DHT22;5599;52.210;21.046;2023-08-06T14:06:50;29.60;99.90
11091;DHT22;5599;52.210;21.046;2023-08-06T14:09:21;29.60;99.90
11091;DHT22;5599;52.210;21.046;2023-08-06T14:11:53;29.70;99.90
11091;DHT22;5599;52.210;21.046;2023-08-06T14:14:23;29.80;99.90
11091;DHT22;5599;52.210;21.046;2023-08-06T14:16:54;30.00;99.90
11091;DHT22;5599;52.210;21.046;2023-08-06T14:19:26;30.00;99.90
11091;DHT22;5599;52.210;21.046;2023-08-06T14:21:55;30.00;99.90
11091;DHT22;5599;52.210;21.046;2023-08-06T14:24:25;30.00;99.90
11091;DHT22;5599;52.210;21.046;2023-08-06T14:26:58;30.00;99.90
11091;DHT22;5599;52.210;21.046;2023-08-06T14:29:28;30.00;99.90
11091;DHT22;5599;52.210;21.046;2023-08-06T14:31:59;29.90;99.90
11091;DHT22;5599;52.210;21.046;2023-08-06T14:34:30;29.90;99.90
11091;DHT22;5599;52.210;21.046;2023-08-06T14:37:00;30.00;1.00
11091;DHT22;5599;52.210;21.046;2023-08-06T14:39:31;30.20;1.00
11091;DHT22;5599;52.210;21.046;2023-08-06T14:42:04;30.00;99.90
11091;DHT22;5599;52.210;21.046;2023-08-06T14:44:35;30.20;99.90
11091;DHT22;5599;52.210;21.046;2023-08-06T14:47:06;30.30;99.90
11091;DHT22;5599;52.210;21.046;2023-08-06T14:49:35;30.20;99.90
11091;DHT22;5599;52.210;21.046;2023-08-06T14:52:06;30.20;99.90
11091;DHT22;5599;52.210;21.046;2023-08-06T14:54:37;30.00;99.90
11091;DHT22;5599;52.210;21.046;2023-08-06T14:57:11;30.00;99.90
11091;DHT22;5599;52.210;21.046;2023-08-06T14:59:42;30.00;99.90
11091;DHT22;5599;52.210;21.046;2023-08-06T15:02:14;29.90;99.90
11091;DHT22;5599;52.210;21.046;2023-08-06T15:04:44;29.80;1.00
11091;DHT22;5599;52.210;21.046;2023-08-06T15:07:16;29.70;1.00
11091;DHT22;5599;52.210;21.046;2023-08-06T15:09:47;29.60;99.90
11091;DHT22;5599;52.210;21.046;2023-08-06T15:12:39;29.70;99.90
11091;DHT22;5599;52.210;21.046;2023-08-06T15:15:11;29.60;1.00
11091;DHT22;5599;52.210;21.046;2023-08-06T15:17:42;29.50;1.00
11091;DHT22;5599;52.210;21.046;2023-08-06T15:20:13;29.40;1.00
11091;DHT22;5599;52.210;21.046;2023-08-06T15:22:44;29.20;1.00
11091;DHT22;5599;52.210;21.046;2023-08-06T15:25:15;29.10;99.90
11091;DHT22;5599;52.210;21.046;2023-08-06T15:27:48;29.10;1.00
11091;DHT22;5599;52.210;21.046;2023-08-06T15:30:18;29.10;1.00
11091;DHT22;5599;52.210;21.046;2023-08-06T15:32:50;29.10;1.00
11091;DHT22;5599;52.210;21.046;2023-08-06T15:35:20;29.00;1.00
11091;DHT22;5599;52.210;21.046;2023-08-06T15:37:50;28.80;1.00
11091;DHT22;5599;52.210;21.046;2023-08-06T15:40:20;28.60;1.00
11091;DHT22;5599;52.210;21.046;2023-08-06T15:42:51;28.50;1.00
11091;DHT22;5599;52.210;21.046;2023-08-06T15:45:22;28.40;1.00
11091;DHT22;5599;52.210;21.046;2023-08-06T15:47:51;28.40;1.00
11091;DHT22;5599;52.210;21.046;2023-08-06T15:50:22;28.30;1.00
11091;DHT22;5599;52.210;21.046;2023-08-06T15:52:51;28.20;1.00
11091;DHT22;5599;52.210;21.046;2023-08-06T15:55:22;28.10;31.00
11091;DHT22;5599;52.210;21.046;2023-08-06T15:57:54;27.90;14.90